Time;durP1;ratioP1;P1;durP2;ratioP2;P2;SDS_P1;SDS_P2;PMS_P1;PMS_P2;Temp;Humidity;BMP_temperature;BMP_pressure;BME280_temperature;BME280_humidity;BME280_pressure;Samples;Min_cycle;Max_cycle;Signal;HPM_P1;HPM_P2
2022/07/30 00:00:56;;;;;;;5.27;2.30;;;;;;;18.86;71.45;101684.56;5092395;28;20664;-71
2022/07/30 00:03:21;;;;;;;5.77;2.30;;;;;;;18.86;71.62;101683.69;5092308;28;20302;-71
2022/07/30 00:05:47;;;;;;;9.23;2.60;;;;;;;18.87;71.67;101685.41;5091848;28;20323;-71
2022/07/30 00:08:12;;;;;;;11.33;2.43;;;;;;;18.83;71.87;101678.50;5092161;28;20787;-69
2022/07/30 00:10:38;;;;;;;4.67;2.57;;;;;;;18.79;71.85;101674.19;5088108;28;20204;-69
2022/07/30 00:13:04;;;;;;;3.80;2.00;;;;;;;18.75;71.93;101683.69;5090741;28;20188;-71
2022/07/30 00:15:30;;;;;;;2.90;1.97;;;;;;;18.75;71.73;101681.09;5095219;28;20189;-70
2022/07/30 00:17:55;;;;;;;5.37;2.03;;;;;;;18.70;72.42;101684.56;5071717;28;20197;-70
2022/07/30 00:20:21;;;;;;;4.43;2.17;;;;;;;18.66;72.37;101668.13;5076376;28;20265;-70
2022/07/30 00:22:47;;;;;;;4.73;1.97;;;;;;;18.68;72.09;101681.09;5091859;28;20215;-69
2022/07/30 00:25:12;;;;;;;6.53;2.80;;;;;;;18.71;71.66;101678.50;5092151;28;20278;-70
2022/07/30 00:27:38;;;;;;;6.30;2.50;;;;;;;18.67;72.27;101677.66;5073430;28;20212;-70
2022/07/30 00:30:05;;;;;;;5.97;2.13;;;;;;;18.65;72.04;101681.97;5073712;28;20589;-70
2022/07/30 00:32:31;;;;;;;4.33;2.07;;;;;;;18.67;71.95;101679.38;5107621;28;20198;-70
2022/07/30 00:34:56;;;;;;;3.30;2.10;;;;;;;18.66;72.00;101677.66;5091356;28;20188;-70
2022/07/30 00:37:22;;;;;;;4.23;2.10;;;;;;;18.63;72.02;101673.31;5071900;28;20237;-70
2022/07/30 00:39:47;;;;;;;4.43;2.10;;;;;;;18.58;72.23;101671.59;5073526;28;20218;-70
2022/07/30 00:42:13;;;;;;;8.40;2.23;;;;;;;18.57;72.43;101665.53;5073906;28;20207;-71
2022/07/30 00:44:40;;;;;;;4.90;2.30;;;;;;;18.53;72.55;101673.31;5092146;28;20188;-70
2022/07/30 00:47:06;;;;;;;4.73;2.47;;;;;;;18.49;72.98;101677.66;5073571;28;20216;-70
2022/07/30 00:49:31;;;;;;;4.47;2.27;;;;;;;18.40;73.38;101676.75;5091435;28;20277;-70
2022/07/30 00:51:57;;;;;;;4.30;2.40;;;;;;;18.35;73.53;101679.38;5073609;28;20295;-70
2022/07/30 00:54:22;;;;;;;5.33;2.53;;;;;;;18.31;73.68;101672.41;5091186;28;20271;-70
2022/07/30 00:56:48;;;;;;;5.57;2.30;;;;;;;18.22;74.34;101680.16;5090979;28;20180;-69
2022/07/30 00:59:14;;;;;;;3.77;2.40;;;;;;;18.15;74.88;101673.22;5073333;28;20185;-70
2022/07/30 01:01:39;;;;;;;4.80;2.37;;;;;;;18.15;75.02;101669.78;5073103;28;20302;-71
2022/07/30 01:04:10;;;;;;;5.47;2.60;;;;;;;18.13;74.82;101672.38;5091056;28;20180;-70
2022/07/30 01:06:37;;;;;;;5.70;2.77;;;;;;;18.08;75.47;101668.03;5055894;28;20212;-71
2022/07/30 01:09:02;;;;;;;9.33;2.77;;;;;;;18.05;75.52;101679.25;5106870;28;20237;-71
2022/07/30 01:11:36;;;;;;;4.50;2.67;;;;;;;18.02;76.27;101676.69;5092048;28;20200;-71
2022/07/30 01:14:04;;;;;;;4.20;2.90;;;;;;;18.02;76.33;101681.00;5073342;28;20196;-70
2022/07/30 01:16:30;;;;;;;4.90;2.43;;;;;;;17.98;76.66;101677.53;5072823;28;20597;-70
2022/07/30 01:21:47;;;;;;;6.23;2.80;;;;;;;17.92;77.84;101674.91;5072417;28;20204;-70
2022/07/30 01:24:21;;;;;;;4.23;2.50;;;;;;;17.87;78.10;101675.78;5089589;28;20188;-71
2022/07/30 01:26:49;;;;;;;5.20;2.93;;;;;;;17.85;78.71;101670.56;5072338;28;20737;-71
2022/07/30 01:29:16;;;;;;;3.07;2.27;;;;;;;17.77;79.01;101669.69;5090695;28;20186;-70
2022/07/30 01:31:44;;;;;;;3.73;2.40;;;;;;;17.77;79.13;101661.06;5072490;28;20204;-69
2022/07/30 01:34:13;;;;;;;6.40;2.37;;;;;;;17.75;79.17;101655.00;5072696;28;20602;-70
2022/07/30 01:36:43;;;;;;;5.67;2.57;;;;;;;17.67;79.00;101661.84;5089613;28;20173;-70
2022/07/30 01:39:10;;;;;;;6.17;2.57;;;;;;;17.66;79.12;101654.94;5084747;28;20276;-71
2022/07/30 01:41:37;;;;;;;5.20;2.70;;;;;;;17.59;79.47;101669.59;5103450;28;20209;-70
2022/07/30 01:44:04;;;;;;;3.10;2.50;;;;;;;17.53;79.84;101656.63;5071998;28;20192;-70
2022/07/30 01:46:30;;;;;;;6.47;2.77;;;;;;;17.54;79.55;101657.50;5071868;28;20216;-69
2022/07/30 01:48:57;;;;;;;6.50;3.17;;;;;;;17.43;80.11;101654.88;5071748;28;20639;-70
2022/07/30 01:51:25;;;;;;;4.93;2.73;;;;;;;17.42;80.14;101653.16;5071626;28;20208;-70
2022/07/30 01:53:52;;;;;;;6.60;3.37;;;;;;;17.36;80.74;101652.22;5072079;28;20640;-70
2022/07/30 01:56:22;;;;;;;7.23;3.20;;;;;;;17.35;80.31;101655.63;5071530;28;20183;-70
2022/07/30 01:58:51;;;;;;;8.07;3.10;;;;;;;17.35;80.29;101653.06;5071985;28;20645;-70
2022/07/30 02:01:23;;;;;;;2.60;2.40;;;;;;;17.34;80.64;101659.97;5071671;28;20602;-69
2022/07/30 02:03:48;;;;;;;4.77;2.97;;;;;;;17.34;80.99;101659.09;5054954;28;20586;-70
2022/07/30 02:06:20;;;;;;;5.03;2.30;;;;;;;17.32;81.14;101656.50;5089715;28;20215;-70
2022/07/30 02:08:58;;;;;;;5.33;2.60;;;;;;;17.30;81.07;101653.03;5071893;28;20176;-70
2022/07/30 02:14:18;;;;;;;5.50;2.90;;;;;;;17.30;81.61;101658.22;5071697;28;20231;-70
2022/07/30 02:16:49;;;;;;;5.70;2.63;;;;;;;17.28;81.59;101659.94;5071082;28;20192;-70
2022/07/30 02:19:17;;;;;;;4.93;2.70;;;;;;;17.29;81.74;101653.91;5104867;28;20195;-70
2022/07/30 02:21:47;;;;;;;4.80;2.63;;;;;;;17.33;81.47;101655.66;5070535;28;20581;-70
2022/07/30 02:24:23;;;;;;;5.57;2.60;;;;;;;17.36;81.80;101660.00;5072204;28;20196;-70
2022/07/30 02:26:53;;;;;;;7.37;3.07;;;;;;;17.37;81.74;101661.72;5089710;28;20188;-70
2022/07/30 02:29:22;;;;;;;5.63;2.30;;;;;;;17.37;82.19;101664.31;5071388;28;20678;-69
2022/07/30 02:31:50;;;;;;;4.07;2.53;;;;;;;17.36;82.23;101670.34;5070971;28;20247;-70
2022/07/30 02:34:20;;;;;;;4.57;3.37;;;;;;;17.35;82.48;101677.22;5105124;28;20183;-70
2022/07/30 02:36:46;;;;;;;4.67;2.70;;;;;;;17.37;82.32;101677.25;5071275;28;20177;-69
2022/07/30 02:39:13;;;;;;;5.07;2.77;;;;;;;17.36;83.07;101676.38;5054773;28;20252;-70
2022/07/30 02:41:43;;;;;;;6.83;3.20;;;;;;;17.37;82.46;101677.25;5071092;28;20204;-70
2022/07/30 02:44:10;;;;;;;3.60;2.97;;;;;;;17.36;82.73;101668.59;5054811;28;20271;-70
2022/07/30 02:46:38;;;;;;;5.70;2.30;;;;;;;17.41;82.37;101681.63;5054181;28;20208;-70
2022/07/30 02:49:26;;;;;;;5.20;2.73;;;;;;;17.41;82.83;101689.41;5069170;28;20196;-70
2022/07/30 02:51:53;;;;;;;3.97;2.70;;;;;;;17.39;83.32;101685.88;5051246;28;20212;-70
2022/07/30 02:54:19;;;;;;;7.53;3.10;;;;;;;17.43;82.94;101673.00;5069358;28;20574;-69
2022/07/30 02:56:46;;;;;;;4.63;3.07;;;;;;;17.41;83.48;101684.22;5051033;28;20177;-69
2022/07/30 02:59:14;;;;;;;5.70;2.53;;;;;;;17.39;83.48;101684.19;5051662;28;20189;-70
2022/07/30 03:01:42;;;;;;;5.23;2.63;;;;;;;17.39;83.27;101681.59;5069406;28;20268;-70
2022/07/30 03:04:09;;;;;;;4.40;2.87;;;;;;;17.44;83.15;101682.50;5109220;28;20608;-70
2022/07/30 03:06:36;;;;;;;5.67;3.37;;;;;;;17.41;83.77;101685.06;5108864;28;20212;-70
2022/07/30 03:09:03;;;;;;;5.80;3.03;;;;;;;17.40;83.55;101692.84;5109236;28;20196;-70
2022/07/30 03:11:30;;;;;;;4.43;3.13;;;;;;;17.41;83.60;101679.03;5093329;28;20322;-70
2022/07/30 03:13:56;;;;;;;5.70;3.30;;;;;;;17.41;83.59;101681.63;5093096;28;20556;-70
2022/07/30 03:16:24;;;;;;;4.60;3.00;;;;;;;17.41;83.16;101687.66;5092588;28;20283;-70
2022/07/30 03:18:53;;;;;;;4.63;3.10;;;;;;;17.42;83.21;101686.81;5075112;28;20565;-70
2022/07/30 03:21:21;;;;;;;4.83;2.90;;;;;;;17.44;83.20;101679.91;5109129;28;20851;-70
2022/07/30 03:23:49;;;;;;;4.87;3.03;;;;;;;17.40;83.70;101672.97;5074919;28;20192;-69
2022/07/30 03:26:18;;;;;;;7.13;2.73;;;;;;;17.40;83.90;101675.56;5074609;28;20294;-70
2022/07/30 03:28:45;;;;;;;3.37;2.70;;;;;;;17.39;84.09;101678.09;5074545;28;20208;-70
2022/07/30 03:31:13;;;;;;;4.63;2.40;;;;;;;17.38;84.07;101677.25;5108459;28;20875;-69
2022/07/30 03:33:39;;;;;;;6.53;2.93;;;;;;;17.36;84.41;101676.38;5073437;28;20188;-70
2022/07/30 03:36:07;;;;;;;6.10;2.60;;;;;;;17.36;84.22;101678.13;5092748;28;20172;-71
2022/07/30 03:38:36;;;;;;;4.67;2.90;;;;;;;17.35;84.00;101674.66;5093156;28;20553;-70
2022/07/30 03:41:03;;;;;;;5.47;2.60;;;;;;;17.33;83.92;101671.19;5074715;28;20242;-69
2022/07/30 03:43:30;;;;;;;5.07;2.70;;;;;;;17.30;84.01;101673.75;5058167;28;20189;-70
2022/07/30 03:45:57;;;;;;;4.40;2.70;;;;;;;17.30;83.61;101671.16;5074383;28;20235;-69
2022/07/30 03:48:26;;;;;;;6.43;2.57;;;;;;;17.36;83.30;101665.16;5074322;28;20185;-70
2022/07/30 03:50:54;;;;;;;2.90;2.63;;;;;;;17.35;83.78;101660.81;5074617;28;20722;-70
2022/07/30 03:53:23;;;;;;;4.60;2.73;;;;;;;17.35;83.22;101655.63;5074360;28;20267;-70
2022/07/30 03:56:13;;;;;;;7.83;2.70;;;;;;;17.32;83.68;101656.50;5063397;28;20196;-70
2022/07/30 03:58:56;;;;;;;5.73;3.20;;;;;;;17.30;83.83;101654.75;5074229;28;20177;-70
2022/07/30 04:01:25;;;;;;;5.60;2.80;;;;;;;17.29;83.98;101645.25;5092462;28;20208;-70
2022/07/30 04:03:54;;;;;;;4.17;2.90;;;;;;;17.29;83.62;101659.09;5074261;28;20180;-70
2022/07/30 04:06:20;;;;;;;5.00;3.00;;;;;;;17.26;83.79;101653.88;5107745;28;20257;-69
2022/07/30 04:08:46;;;;;;;4.03;2.60;;;;;;;17.24;83.70;101652.16;5107940;28;20189;-70
2022/07/30 04:11:11;;;;;;;5.13;3.00;;;;;;;17.26;83.50;101647.81;5073765;28;20304;-69
2022/07/30 04:14:01;;;;;;;3.90;2.87;;;;;;;17.26;83.88;101647.81;5107505;28;20180;-70
2022/07/30 04:16:38;;;;;;;7.13;3.00;;;;;;;17.28;83.62;101656.47;5104766;28;20192;-70
2022/07/30 04:19:09;;;;;;;5.47;3.03;;;;;;;17.29;83.74;101669.44;5073814;28;20184;-70
2022/07/30 04:21:36;;;;;;;5.67;2.77;;;;;;;17.30;83.22;101662.53;5092062;28;20200;-70
2022/07/30 04:24:03;;;;;;;4.20;2.70;;;;;;;17.30;83.71;101663.41;5073688;28;20200;-70
2022/07/30 04:26:35;;;;;;;3.57;2.73;;;;;;;17.31;83.79;101665.13;5073493;28;20682;-70
2022/07/30 04:29:04;;;;;;;4.90;2.70;;;;;;;17.36;83.28;101667.75;5073708;28;20196;-71
2022/07/30 04:31:34;;;;;;;4.47;2.77;;;;;;;17.35;83.46;101666.88;5073627;28;20215;-70
2022/07/30 04:34:05;;;;;;;6.00;2.87;;;;;;;17.38;83.22;101663.44;5073628;28;20242;-70
2022/07/30 04:36:38;;;;;;;6.73;3.10;;;;;;;17.38;83.69;101668.63;5073442;28;20195;-70
2022/07/30 04:39:03;;;;;;;3.70;2.47;;;;;;;17.42;83.44;101660.03;5091770;28;20180;-70
2022/07/30 04:41:29;;;;;;;4.67;2.90;;;;;;;17.46;83.61;101670.41;5091687;28;20265;-70
2022/07/30 04:44:20;;;;;;;5.70;2.57;;;;;;;17.52;82.86;101669.56;5087470;28;20224;-70
2022/07/30 04:47:05;;;;;;;4.87;3.00;;;;;;;17.54;82.24;101670.47;5073163;28;20690;-70
2022/07/30 04:49:35;;;;;;;3.77;2.80;;;;;;;17.59;82.51;101668.75;5073451;28;20188;-70
2022/07/30 04:52:02;;;;;;;5.03;2.80;;;;;;;17.65;82.12;101680.00;5073265;28;20209;-70
2022/07/30 04:54:37;;;;;;;5.60;2.80;;;;;;;17.70;81.94;101680.91;5092184;28;20184;-71
2022/07/30 04:57:05;;;;;;;4.83;2.97;;;;;;;17.76;81.33;101677.44;5073411;28;20180;-70
2022/07/30 04:59:31;;;;;;;5.30;2.37;;;;;;;17.80;81.36;101681.78;5073508;28;20195;-70
2022/07/30 05:01:58;;;;;;;5.73;3.13;;;;;;;17.86;80.87;101680.06;5073236;28;20209;-69
2022/07/30 05:04:25;;;;;;;7.97;3.10;;;;;;;17.93;80.67;101683.56;5073207;28;20191;-69
2022/07/30 05:06:53;;;;;;;6.27;2.73;;;;;;;17.96;80.62;101680.97;5072672;28;20269;-70
2022/07/30 05:09:19;;;;;;;4.30;2.60;;;;;;;18.02;80.34;101679.28;5056285;28;20211;-71
2022/07/30 05:11:52;;;;;;;4.23;2.23;;;;;;;18.11;79.69;101678.41;5072729;28;20201;-70
2022/07/30 05:14:18;;;;;;;4.73;2.43;;;;;;;18.20;79.29;101668.91;5072787;28;20188;-70
2022/07/30 05:16:44;;;;;;;7.40;2.43;;;;;;;18.27;79.87;101680.16;5090597;28;20611;-70
2022/07/30 05:19:10;;;;;;;4.40;2.70;;;;;;;18.32;78.99;101678.44;5072698;28;20219;-70
2022/07/30 05:21:35;;;;;;;6.30;2.67;;;;;;;18.35;78.90;101679.38;5072413;28;20208;-70
2022/07/30 05:24:01;;;;;;;4.83;2.20;;;;;;;18.38;78.38;101678.50;5072390;28;20193;-70
2022/07/30 05:26:32;;;;;;;5.57;2.60;;;;;;;18.44;78.79;101675.91;5067190;28;21058;-71
2022/07/30 05:28:58;;;;;;;3.67;2.80;;;;;;;18.48;77.92;101670.75;5072450;28;20187;-71
2022/07/30 05:31:31;;;;;;;9.47;2.77;;;;;;;18.56;77.56;101687.16;5072528;28;20205;-70
2022/07/30 05:33:59;;;;;;;3.90;2.60;;;;;;;18.58;77.82;101685.44;5072458;28;20184;-70
2022/07/30 05:36:31;;;;;;;6.33;2.70;;;;;;;18.67;77.27;101681.97;5072198;28;20184;-72
2022/07/30 05:38:57;;;;;;;3.90;2.63;;;;;;;18.69;77.16;101688.00;5072165;28;20199;-71
2022/07/30 05:41:54;;;;;;;3.93;2.53;;;;;;;18.77;76.99;101688.88;5080704;28;21126;-70
2022/07/30 05:44:24;;;;;;;3.87;2.57;;;;;;;18.82;76.29;101690.63;5058553;28;20177;-69
2022/07/30 05:46:51;;;;;;;6.17;2.70;;;;;;;18.87;76.86;101698.38;5045387;28;20610;-70
2022/07/30 05:49:16;;;;;;;4.97;2.53;;;;;;;18.89;75.90;101694.06;5072450;28;20189;-71
2022/07/30 05:51:42;;;;;;;5.80;2.20;;;;;;;18.92;75.84;101692.34;5071438;28;20701;-71
2022/07/30 05:54:08;;;;;;;5.07;2.67;;;;;;;18.94;76.24;101694.94;5071133;28;20188;-71
2022/07/30 05:56:56;;;;;;;5.13;2.60;;;;;;;18.98;75.90;101697.50;5089125;28;20193;-70
2022/07/30 05:59:30;;;;;;;6.57;2.60;;;;;;;19.01;76.36;101701.84;5071242;28;20182;-72
2022/07/30 06:02:00;;;;;;;4.17;2.80;;;;;;;19.03;75.70;101698.38;5089661;28;20308;-71
2022/07/30 06:04:34;;;;;;;5.17;2.87;;;;;;;19.09;75.79;101692.31;5070023;28;20719;-71
2022/07/30 06:07:02;;;;;;;4.70;2.60;;;;;;;19.13;75.99;101694.91;5071410;28;20293;-72
2022/07/30 06:09:28;;;;;;;3.27;2.33;;;;;;;19.16;76.40;101686.25;5071597;28;20670;-72
2022/07/30 06:11:53;;;;;;;3.23;2.40;;;;;;;19.21;75.12;101690.53;5062517;28;20286;-71
2022/07/30 06:14:19;;;;;;;4.47;2.43;;;;;;;19.28;75.19;101691.44;5071520;28;20650;-71
2022/07/30 06:16:45;;;;;;;4.60;2.80;;;;;;;19.34;75.55;101688.84;5071299;28;20237;-72
2022/07/30 06:19:10;;;;;;;5.00;2.90;;;;;;;19.40;75.32;101688.81;5071601;28;20654;-72
2022/07/30 06:21:42;;;;;;;3.60;2.90;;;;;;;19.37;74.17;101686.22;5071663;28;20663;-71
2022/07/30 06:24:11;;;;;;;3.87;2.80;;;;;;;19.49;72.56;101686.19;5063062;28;20214;-72
2022/07/30 06:26:55;;;;;;;3.73;2.33;;;;;;;19.54;72.05;101697.44;5071016;28;20208;-72
2022/07/30 06:29:20;;;;;;;4.67;2.50;;;;;;;19.59;71.77;101700.88;5071604;28;20195;-72
2022/07/30 06:31:46;;;;;;;5.03;2.80;;;;;;;19.65;72.00;101700.84;5088519;28;20231;-71
2022/07/30 06:34:11;;;;;;;4.03;2.63;;;;;;;19.63;72.09;101703.44;5071454;28;20202;-71
2022/07/30 06:36:40;;;;;;;4.73;3.17;;;;;;;19.70;72.44;101710.38;5071425;28;20184;-70
2022/07/30 06:39:14;;;;;;;4.43;2.70;;;;;;;19.79;71.26;101710.31;5071569;28;20194;-72
2022/07/30 06:41:52;;;;;;;6.57;2.80;;;;;;;19.87;70.90;101710.28;5063512;28;20638;-71
2022/07/30 06:44:18;;;;;;;6.03;3.10;;;;;;;19.83;70.05;101712.03;5071460;28;20184;-72
2022/07/30 06:47:02;;;;;;;6.43;3.10;;;;;;;19.93;70.08;101713.72;5089315;28;20613;-72
2022/07/30 06:49:30;;;;;;;5.13;2.80;;;;;;;20.18;69.70;101717.09;5071364;28;20185;-71
2022/07/30 06:51:56;;;;;;;4.50;2.83;;;;;;;20.45;69.70;101720.38;5065858;28;20204;-71
2022/07/30 06:54:21;;;;;;;4.80;2.70;;;;;;;20.64;67.45;101711.56;5071025;28;20249;-72
2022/07/30 06:57:00;;;;;;;4.13;2.40;;;;;;;21.00;66.98;101719.09;5069993;28;20271;-72
2022/07/30 06:59:26;;;;;;;5.50;2.53;;;;;;;21.21;66.36;101718.91;5089399;28;20726;-71
2022/07/30 07:02:09;;;;;;;5.40;2.43;;;;;;;21.51;65.55;101713.38;5057425;28;20187;-72
2022/07/30 07:04:52;;;;;;;7.53;2.70;;;;;;;21.46;63.86;101712.56;5071425;28;20192;-71
2022/07/30 07:07:18;;;;;;;6.60;2.73;;;;;;;21.82;64.03;101711.28;5071038;28;20280;-72
2022/07/30 07:09:43;;;;;;;4.10;2.70;;;;;;;21.91;63.22;101699.00;5071245;28;20275;-72
2022/07/30 07:12:35;;;;;;;6.10;2.53;;;;;;;21.40;63.09;101712.63;5057860;28;20196;-71
2022/07/30 07:15:00;;;;;;;3.77;2.70;;;;;;;21.58;64.29;101712.44;5071219;28;20291;-72
2022/07/30 07:17:27;;;;;;;4.67;2.53;;;;;;;21.88;62.10;101709.47;5071086;28;20984;-72
2022/07/30 07:19:56;;;;;;;7.63;2.87;;;;;;;21.90;61.19;101696.41;5084750;28;20617;-72
2022/07/30 07:22:21;;;;;;;5.67;2.60;;;;;;;21.65;62.83;101701.03;5046184;28;20279;-71
2022/07/30 07:24:47;;;;;;;7.33;3.00;;;;;;;21.75;61.44;101704.44;5071429;28;20208;-72
2022/07/30 07:27:16;;;;;;;7.63;2.90;;;;;;;21.90;61.11;101697.28;5052183;28;20201;-72
2022/07/30 07:29:44;;;;;;;4.77;3.07;;;;;;;21.45;62.08;101702.13;5030895;28;20223;-69
2022/07/30 07:32:10;;;;;;;3.47;2.70;;;;;;;21.38;62.04;101703.09;5048504;28;20375;-72
2022/07/30 07:34:37;;;;;;;4.07;2.70;;;;;;;21.57;62.36;101702.00;5052306;28;20189;-72
2022/07/30 07:37:03;;;;;;;6.47;2.57;;;;;;;21.69;62.33;101705.34;5070346;28;20718;-74
2022/07/30 07:39:29;;;;;;;5.03;2.33;;;;;;;21.84;60.96;101702.56;5070843;28;20188;-71
2022/07/30 07:41:54;;;;;;;5.47;2.60;;;;;;;21.61;60.65;101704.53;5070694;28;20244;-71
2022/07/30 07:44:22;;;;;;;5.73;3.00;;;;;;;22.04;59.03;101697.94;5071044;28;20206;-72
2022/07/30 07:46:47;;;;;;;7.60;3.03;;;;;;;22.29;59.63;101699.31;5091663;28;20204;-71
2022/07/30 07:49:13;;;;;;;6.03;3.10;;;;;;;22.37;60.51;101696.59;5092758;28;20177;-71
2022/07/30 07:51:45;;;;;;;6.47;2.80;;;;;;;22.65;59.14;101700.53;5108402;28;20287;-70
2022/07/30 07:54:13;;;;;;;5.10;2.27;;;;;;;23.03;59.05;101698.16;5073830;28;20646;-73
2022/07/30 07:56:39;;;;;;;3.10;2.47;;;;;;;22.83;57.62;101697.59;5074049;28;20179;-71
2022/07/30 07:59:06;;;;;;;7.73;2.70;;;;;;;23.12;56.59;101692.75;5074392;28;20229;-71
2022/07/30 08:01:31;;;;;;;4.43;2.40;;;;;;;23.27;56.69;101694.22;5074218;28;20208;-71
2022/07/30 08:04:23;;;;;;;4.93;2.47;;;;;;;23.63;56.75;101704.84;5082782;28;20196;-70
2022/07/30 08:07:06;;;;;;;6.37;3.33;;;;;;;23.20;57.37;101698.72;5091847;28;20208;-70
2022/07/30 08:10:01;;;;;;;7.47;2.80;;;;;;;23.14;58.02;101711.00;5019280;28;20199;-70
2022/07/30 08:12:47;;;;;;;4.27;3.00;;;;;;;23.04;59.10;101702.47;5091538;28;20204;-74
2022/07/30 08:15:15;;;;;;;3.97;2.90;;;;;;;23.01;58.98;101705.13;5084560;28;20268;-74
2022/07/30 08:18:03;;;;;;;7.40;3.17;;;;;;;23.18;58.99;101703.09;5053777;28;20196;-73
2022/07/30 08:20:38;;;;;;;5.67;2.80;;;;;;;23.25;59.47;101702.09;5035750;28;20201;-73
2022/07/30 08:23:05;;;;;;;4.47;2.97;;;;;;;23.36;59.70;101705.41;5087404;28;20685;-74
2022/07/30 08:25:31;;;;;;;7.00;3.30;;;;;;;23.46;58.62;101699.09;5087354;28;20192;-73
2022/07/30 08:27:59;;;;;;;5.90;3.33;;;;;;;23.26;60.20;101701.25;5053587;28;20217;-72
2022/07/30 08:30:24;;;;;;;6.03;2.83;;;;;;;23.23;60.45;101695.19;5071670;28;20617;-73
2022/07/30 08:32:50;;;;;;;4.83;3.00;;;;;;;23.38;60.03;101695.75;5103493;28;20176;-71
2022/07/30 08:35:15;;;;;;;9.17;3.30;;;;;;;23.54;59.56;101694.56;5074022;28;20180;-71
2022/07/30 08:37:41;;;;;;;7.17;3.03;;;;;;;23.46;59.76;101695.59;5107406;28;20176;-72
2022/07/30 08:40:07;;;;;;;6.00;3.17;;;;;;;23.34;59.97;101698.47;5073460;28;20209;-72
2022/07/30 08:42:37;;;;;;;3.73;3.03;;;;;;;23.53;59.88;101703.28;5074098;28;20275;-72
2022/07/30 08:45:04;;;;;;;5.87;2.70;;;;;;;23.46;59.59;101698.22;5073836;28;20246;-70
2022/07/30 08:47:32;;;;;;;7.00;2.80;;;;;;;23.78;59.36;101708.91;5048032;28;20251;-69
2022/07/30 08:50:11;;;;;;;4.30;2.83;;;;;;;24.13;57.45;101717.75;5091568;28;20257;-72
2022/07/30 08:52:54;;;;;;;7.20;3.27;;;;;;;23.54;58.80;101715.50;5073055;28;20718;-71
2022/07/30 08:55:21;;;;;;;4.37;2.80;;;;;;;23.58;58.96;101724.16;5073222;28;20711;-72
2022/07/30 08:57:47;;;;;;;5.20;2.77;;;;;;;23.44;59.56;101711.31;5105637;28;20618;-71
2022/07/30 09:00:14;;;;;;;4.67;2.73;;;;;;;24.46;56.95;101713.50;5090997;28;20208;-72
2022/07/30 09:02:40;;;;;;;8.23;3.20;;;;;;;25.35;54.27;101707.75;5056126;28;20184;-72
2022/07/30 09:05:06;;;;;;;8.43;3.08;;;;;;;25.81;53.76;101704.69;5072925;28;20184;-72
2022/07/30 09:07:33;;;;;;;7.65;2.80;;;;;;;25.91;51.05;101703.50;5072472;28;20297;-72
2022/07/30 09:10:00;;;;;;;5.43;2.70;;;;;;;26.05;51.32;101698.72;5072565;28;20187;-71
2022/07/30 09:12:41;;;;;;;6.68;3.08;;;;;;;25.64;53.37;101707.78;5072705;28;20286;-71
2022/07/30 09:15:14;;;;;;;6.28;3.10;;;;;;;25.29;53.71;101709.69;5072448;28;20269;-71
2022/07/30 09:17:53;;;;;;;8.30;3.08;;;;;;;24.67;54.26;101713.88;5072442;28;20263;-71
2022/07/30 09:20:21;;;;;;;6.45;3.22;;;;;;;24.96;54.11;101721.03;5056125;28;20683;-71
2022/07/30 09:22:55;;;;;;;6.00;3.10;;;;;;;25.08;52.49;101718.94;5090733;28;20729;-70
2022/07/30 09:25:42;;;;;;;6.00;3.10;;;;;;;25.79;50.58;101720.47;5090926;28;20176;-72
2022/07/30 09:28:46;;;;;;;6.97;2.78;;;;;;;25.83;51.29;101727.34;5007996;28;20198;-72
2022/07/30 09:31:11;;;;;;;5.45;3.17;;;;;;;25.67;49.53;101727.84;5007786;28;20288;-71
2022/07/30 09:33:55;;;;;;;6.78;2.90;;;;;;;25.25;51.45;101727.25;5056449;28;20273;-72
2022/07/30 09:36:40;;;;;;;11.30;2.85;;;;;;;25.14;52.62;101728.44;5090358;28;20180;-73
2022/07/30 09:39:32;;;;;;;5.80;2.63;;;;;;;25.13;51.99;101735.41;5060998;28;20193;-71
2022/07/30 09:42:27;;;;;;;6.07;2.92;;;;;;;25.28;50.92;101729.78;5055305;28;20224;-71
2022/07/30 09:45:06;;;;;;;5.95;2.63;;;;;;;25.31;52.90;101732.34;5052285;28;20180;-72
2022/07/30 09:47:44;;;;;;;3.88;2.60;;;;;;;25.27;53.23;101725.47;5052103;28;20303;-73
2022/07/30 09:50:18;;;;;;;5.53;3.05;;;;;;;25.15;53.99;101727.53;5052471;28;20254;-74
2022/07/30 09:52:45;;;;;;;4.07;2.97;;;;;;;25.30;53.07;101728.00;5085770;28;20183;-73
2022/07/30 09:55:13;;;;;;;11.07;3.28;;;;;;;25.18;52.98;101737.94;5072289;28;20191;-72
2022/07/30 09:57:55;;;;;;;6.80;3.05;;;;;;;25.16;53.81;101737.97;5071967;28;20185;-73
2022/07/30 10:00:24;;;;;;;5.25;3.15;;;;;;;25.12;54.22;101730.22;5060159;28;20292;-73
2022/07/30 10:03:18;;;;;;;7.45;3.25;;;;;;;25.02;54.99;101734.84;5057210;28;20219;-73
2022/07/30 10:06:03;;;;;;;10.15;3.20;;;;;;;25.06;55.43;101733.00;5089254;28;20279;-73
2022/07/30 10:08:50;;;;;;;8.75;3.15;;;;;;;25.07;54.75;101732.97;5071211;28;20654;-73
2022/07/30 10:11:25;;;;;;;4.45;3.03;;;;;;;25.01;54.95;101732.25;5071743;28;20701;-71
2022/07/30 10:13:58;;;;;;;6.55;3.13;;;;;;;25.24;54.77;101733.38;5071843;28;20190;-73
2022/07/30 10:16:27;;;;;;;7.35;3.03;;;;;;;25.09;54.62;101739.03;5071499;28;20192;-73
2022/07/30 10:18:56;;;;;;;7.22;3.28;;;;;;;25.12;54.89;101738.06;5071636;28;20195;-73
2022/07/30 10:21:41;;;;;;;7.68;3.50;;;;;;;25.15;54.84;101736.25;5089929;28;20303;-73
2022/07/30 10:24:17;;;;;;;6.18;2.97;;;;;;;25.32;54.06;101738.47;5073160;28;20608;-73
2022/07/30 10:27:19;;;;;;;5.72;3.60;;;;;;;25.48;53.35;101731.88;5012582;28;20225;-73
2022/07/30 10:30:05;;;;;;;5.13;3.00;;;;;;;25.57;53.20;101739.50;5060205;28;20275;-73
2022/07/30 10:32:31;;;;;;;8.10;3.20;;;;;;;25.82;52.91;101743.16;5071871;28;20234;-73
2022/07/30 10:34:57;;;;;;;7.97;3.22;;;;;;;26.69;50.35;101733.50;5089851;28;20781;-72
2022/07/30 10:37:26;;;;;;;7.80;3.20;;;;;;;27.24;48.74;101727.25;5089675;28;20642;-73
2022/07/30 10:39:53;;;;;;;4.80;2.60;;;;;;;27.12;48.98;101735.56;5089751;28;20559;-73
2022/07/30 10:42:56;;;;;;;5.20;3.10;;;;;;;27.51;47.70;101729.78;5090100;28;20191;-73
2022/07/30 10:45:42;;;;;;;7.40;3.13;;;;;;;28.14;47.34;101729.19;5090228;28;20222;-73
2022/07/30 10:48:07;;;;;;;4.63;2.83;;;;;;;28.23;46.38;101727.03;5105490;28;20201;-73
2022/07/30 10:50:49;;;;;;;8.30;3.38;;;;;;;28.57;45.89;101724.81;5089836;28;20269;-73
2022/07/30 10:53:38;;;;;;;6.82;3.13;;;;;;;28.72;44.82;101729.47;5090002;28;20187;-74
2022/07/30 10:56:20;;;;;;;6.00;3.00;;;;;;;28.97;44.69;101724.84;5106313;28;20184;-73
2022/07/30 10:59:05;;;;;;;4.70;3.05;;;;;;;29.61;43.61;101715.91;5078492;28;20176;-73
2022/07/30 11:01:46;;;;;;;6.05;3.13;;;;;;;30.10;42.09;101720.66;5089597;28;20200;-73
2022/07/30 11:04:18;;;;;;;6.60;2.97;;;;;;;30.08;41.45;101719.03;5089628;28;20192;-73
2022/07/30 11:06:43;;;;;;;6.35;2.65;;;;;;;30.52;40.57;101719.56;5089666;28;20215;-74
2022/07/30 11:09:34;;;;;;;5.75;2.97;;;;;;;30.26;39.84;101720.81;5089927;28;20172;-74
2022/07/30 11:11:59;;;;;;;7.03;2.90;;;;;;;30.00;40.26;101719.38;5090020;28;20285;-74
2022/07/30 11:14:47;;;;;;;4.97;2.83;;;;;;;30.31;40.41;101717.94;5089615;28;20193;-73
2022/07/30 11:17:16;;;;;;;5.95;2.72;;;;;;;30.27;41.15;101721.66;5089204;28;20203;-73
2022/07/30 11:20:06;;;;;;;5.15;3.30;;;;;;;30.38;42.08;101717.56;5089387;28;20192;-74
2022/07/30 11:22:37;;;;;;;3.67;2.72;;;;;;;30.51;41.69;101709.91;5093543;28;20192;-74
2022/07/30 11:25:04;;;;;;;4.43;2.90;;;;;;;30.36;41.32;101705.34;5093626;28;20176;-73
2022/07/30 11:27:33;;;;;;;6.65;2.90;;;;;;;30.57;41.44;101713.09;5093611;28;20200;-73
2022/07/30 11:29:59;;;;;;;5.10;3.00;;;;;;;30.63;42.12;101707.53;5093244;28;20204;-73
2022/07/30 11:32:33;;;;;;;6.88;2.90;;;;;;;30.56;41.54;101705.25;5093469;28;20234;-73
2022/07/30 11:35:24;;;;;;;6.97;2.88;;;;;;;30.78;39.96;101706.78;5093232;28;20738;-73
2022/07/30 11:37:56;;;;;;;5.60;3.20;;;;;;;30.88;41.55;101709.84;5092906;28;20273;-72
2022/07/30 11:40:24;;;;;;;6.72;2.90;;;;;;;30.84;41.65;101714.41;5093685;28;20212;-73
2022/07/30 11:42:51;;;;;;;5.70;3.25;;;;;;;30.87;40.42;101706.31;5091909;28;20275;-73
2022/07/30 11:45:21;;;;;;;4.80;3.22;;;;;;;30.94;42.03;101704.22;5093345;28;20263;-73
2022/07/30 11:47:56;;;;;;;4.97;3.30;;;;;;;30.92;41.03;101704.28;5092826;28;20697;-71